sensor_id;sensor_type;location;lat;lon;timestamp;P1;durP1;ratioP1;P2;durP2;ratioP2
68479;SDS011;55469;48.934;12.050;2022-12-07T00:01:18;4.43;;;3.33;;
68479;SDS011;55469;48.934;12.050;2022-12-07T00:03:45;5.22;;;3.60;;
68479;SDS011;55469;48.934;12.050;2022-12-07T00:06:13;3.80;;;3.25;;
68479;SDS011;55469;48.934;12.050;2022-12-07T00:08:40;4.85;;;3.38;;
68479;SDS011;55469;48.934;12.050;2022-12-07T00:11:07;3.75;;;3.00;;
68479;SDS011;55469;48.934;12.050;2022-12-07T00:13:45;5.00;;;3.22;;
68479;SDS011;55469;48.934;12.050;2022-12-07T00:16:16;4.85;;;3.33;;
68479;SDS011;55469;48.934;12.050;2022-12-07T00:18:44;4.18;;;2.97;;
68479;SDS011;55469;48.934;12.050;2022-12-07T00:21:12;4.55;;;3.50;;
68479;SDS011;55469;48.934;12.050;2022-12-07T00:23:41;4.75;;;3.20;;
68479;SDS011;55469;48.934;12.050;2022-12-07T00:26:13;4.35;;;3.30;;
68479;SDS011;55469;48.934;12.050;2022-12-07T00:28:44;4.03;;;3.20;;
68479;SDS011;55469;48.934;12.050;2022-12-07T00:33:44;4.63;;;3.10;;
68479;SDS011;55469;48.934;12.050;2022-12-07T00:36:11;4.10;;;3.10;;
68479;SDS011;55469;48.934;12.050;2022-12-07T00:38:46;4.13;;;3.00;;
68479;SDS011;55469;48.934;12.050;2022-12-07T00:41:13;5.32;;;3.80;;
68479;SDS011;55469;48.934;12.050;2022-12-07T00:43:41;5.03;;;3.00;;
68479;SDS011;55469;48.934;12.050;2022-12-07T00:46:08;4.93;;;3.55;;
68479;SDS011;55469;48.934;12.050;2022-12-07T00:48:35;3.90;;;3.17;;
68479;SDS011;55469;48.934;12.050;2022-12-07T00:51:01;4.70;;;3.03;;
68479;SDS011;55469;48.934;12.050;2022-12-07T00:53:28;4.35;;;3.20;;
68479;SDS011;55469;48.934;12.050;2022-12-07T00:55:54;4.45;;;2.92;;
68479;SDS011;55469;48.934;12.050;2022-12-07T00:58:21;3.65;;;2.97;;
68479;SDS011;55469;48.934;12.050;2022-12-07T01:00:48;4.43;;;3.15;;
68479;SDS011;55469;48.934;12.050;2022-12-07T01:03:14;4.05;;;3.10;;
68479;SDS011;55469;48.934;12.050;2022-12-07T01:05:48;4.07;;;3.13;;
68479;SDS011;55469;48.934;12.050;2022-12-07T01:08:16;5.13;;;3.33;;
68479;SDS011;55469;48.934;12.050;2022-12-07T01:10:42;4.10;;;2.97;;
68479;SDS011;55469;48.934;12.050;2022-12-07T01:13:07;4.07;;;3.15;;
68479;SDS011;55469;48.934;12.050;2022-12-07T01:15:33;3.63;;;3.10;;
68479;SDS011;55469;48.934;12.050;2022-12-07T01:17:59;4.15;;;3.00;;
68479;SDS011;55469;48.934;12.050;2022-12-07T01:20:24;4.57;;;3.30;;
68479;SDS011;55469;48.934;12.050;2022-12-07T01:22:50;4.05;;;3.03;;
68479;SDS011;55469;48.934;12.050;2022-12-07T01:25:16;4.13;;;2.97;;
68479;SDS011;55469;48.934;12.050;2022-12-07T01:27:42;4.05;;;2.72;;
68479;SDS011;55469;48.934;12.050;2022-12-07T01:30:09;3.55;;;2.90;;
68479;SDS011;55469;48.934;12.050;2022-12-07T01:32:36;3.80;;;3.10;;
68479;SDS011;55469;48.934;12.050;2022-12-07T01:35:01;3.45;;;2.85;;
68479;SDS011;55469;48.934;12.050;2022-12-07T01:37:28;4.18;;;3.20;;
68479;SDS011;55469;48.934;12.050;2022-12-07T01:39:59;4.18;;;2.88;;
68479;SDS011;55469;48.934;12.050;2022-12-07T01:42:24;4.35;;;3.03;;
68479;SDS011;55469;48.934;12.050;2022-12-07T01:47:59;3.58;;;2.90;;
68479;SDS011;55469;48.934;12.050;2022-12-07T01:50:25;4.05;;;3.05;;
68479;SDS011;55469;48.934;12.050;2022-12-07T01:52:53;3.65;;;2.90;;
68479;SDS011;55469;48.934;12.050;2022-12-07T01:55:23;4.40;;;3.10;;
68479;SDS011;55469;48.934;12.050;2022-12-07T01:57:49;3.88;;;2.85;;
68479;SDS011;55469;48.934;12.050;2022-12-07T02:00:17;3.65;;;2.90;;
68479;SDS011;55469;48.934;12.050;2022-12-07T02:05:27;3.88;;;2.90;;
68479;SDS011;55469;48.934;12.050;2022-12-07T02:07:55;3.95;;;3.08;;
68479;SDS011;55469;48.934;12.050;2022-12-07T02:10:28;3.95;;;2.95;;
68479;SDS011;55469;48.934;12.050;2022-12-07T02:15:59;4.15;;;2.72;;
68479;SDS011;55469;48.934;12.050;2022-12-07T02:31:44;3.72;;;2.70;;
68479;SDS011;55469;48.934;12.050;2022-12-07T02:34:21;3.42;;;2.60;;
68479;SDS011;55469;48.934;12.050;2022-12-07T02:36:58;4.30;;;3.10;;
68479;SDS011;55469;48.934;12.050;2022-12-07T02:39:37;4.63;;;3.00;;
68479;SDS011;55469;48.934;12.050;2022-12-07T02:42:15;3.05;;;2.60;;
68479;SDS011;55469;48.934;12.050;2022-12-07T02:44:49;3.67;;;2.70;;
68479;SDS011;55469;48.934;12.050;2022-12-07T02:47:17;3.15;;;2.67;;
68479;SDS011;55469;48.934;12.050;2022-12-07T02:49:45;3.10;;;2.80;;
68479;SDS011;55469;48.934;12.050;2022-12-07T02:52:11;3.50;;;2.95;;
68479;SDS011;55469;48.934;12.050;2022-12-07T02:54:37;4.15;;;3.13;;
68479;SDS011;55469;48.934;12.050;2022-12-07T02:59:54;4.13;;;3.08;;
68479;SDS011;55469;48.934;12.050;2022-12-07T03:05:44;4.05;;;2.90;;
68479;SDS011;55469;48.934;12.050;2022-12-07T03:11:11;3.53;;;2.90;;
68479;SDS011;55469;48.934;12.050;2022-12-07T03:16:41;4.45;;;2.97;;
68479;SDS011;55469;48.934;12.050;2022-12-07T03:19:18;4.70;;;3.10;;
68479;SDS011;55469;48.934;12.050;2022-12-07T03:21:56;4.50;;;3.13;;
68479;SDS011;55469;48.934;12.050;2022-12-07T03:24:41;3.17;;;2.88;;
68479;SDS011;55469;48.934;12.050;2022-12-07T03:27:16;3.85;;;2.88;;
68479;SDS011;55469;48.934;12.050;2022-12-07T03:29:54;4.63;;;3.25;;
68479;SDS011;55469;48.934;12.050;2022-12-07T03:32:29;4.55;;;3.25;;
68479;SDS011;55469;48.934;12.050;2022-12-07T03:35:07;3.72;;;2.92;;
68479;SDS011;55469;48.934;12.050;2022-12-07T03:37:44;4.28;;;3.00;;
68479;SDS011;55469;48.934;12.050;2022-12-07T03:40:32;3.00;;;2.55;;
68479;SDS011;55469;48.934;12.050;2022-12-07T03:43:10;3.80;;;3.08;;
68479;SDS011;55469;48.934;12.050;2022-12-07T03:50:43;3.65;;;2.83;;
68479;SDS011;55469;48.934;12.050;2022-12-07T03:53:42;4.45;;;3.30;;
68479;SDS011;55469;48.934;12.050;2022-12-07T03:56:10;4.28;;;2.83;;
68479;SDS011;55469;48.934;12.050;2022-12-07T03:58:36;5.60;;;3.30;;
68479;SDS011;55469;48.934;12.050;2022-12-07T04:01:03;3.88;;;2.95;;
68479;SDS011;55469;48.934;12.050;2022-12-07T04:03:29;4.72;;;3.45;;
68479;SDS011;55469;48.934;12.050;2022-12-07T04:05:54;4.10;;;3.10;;
68479;SDS011;55469;48.934;12.050;2022-12-07T04:08:20;4.35;;;3.03;;
68479;SDS011;55469;48.934;12.050;2022-12-07T04:10:46;4.30;;;3.15;;
68479;SDS011;55469;48.934;12.050;2022-12-07T04:13:12;3.42;;;2.72;;
68479;SDS011;55469;48.934;12.050;2022-12-07T04:15:37;4.03;;;2.90;;
68479;SDS011;55469;48.934;12.050;2022-12-07T04:18:03;4.68;;;3.10;;
68479;SDS011;55469;48.934;12.050;2022-12-07T04:20:29;4.93;;;3.35;;
68479;SDS011;55469;48.934;12.050;2022-12-07T04:22:55;3.75;;;2.67;;
68479;SDS011;55469;48.934;12.050;2022-12-07T04:25:21;4.20;;;3.05;;
68479;SDS011;55469;48.934;12.050;2022-12-07T04:27:46;4.30;;;3.05;;
68479;SDS011;55469;48.934;12.050;2022-12-07T04:30:12;4.50;;;3.17;;
68479;SDS011;55469;48.934;12.050;2022-12-07T04:32:38;3.30;;;2.80;;
68479;SDS011;55469;48.934;12.050;2022-12-07T04:35:04;3.78;;;3.00;;
68479;SDS011;55469;48.934;12.050;2022-12-07T04:37:30;3.72;;;2.80;;
68479;SDS011;55469;48.934;12.050;2022-12-07T04:39:56;4.82;;;3.20;;
68479;SDS011;55469;48.934;12.050;2022-12-07T04:42:22;5.13;;;3.53;;
68479;SDS011;55469;48.934;12.050;2022-12-07T04:44:47;5.28;;;3.50;;
68479;SDS011;55469;48.934;12.050;2022-12-07T04:47:13;3.42;;;2.90;;
68479;SDS011;55469;48.934;12.050;2022-12-07T04:49:39;4.53;;;2.92;;
68479;SDS011;55469;48.934;12.050;2022-12-07T04:52:04;4.03;;;2.85;;
68479;SDS011;55469;48.934;12.050;2022-12-07T04:54:30;3.88;;;3.08;;
68479;SDS011;55469;48.934;12.050;2022-12-07T04:56:56;4.00;;;3.03;;
68479;SDS011;55469;48.934;12.050;2022-12-07T04:59:22;4.30;;;3.20;;
68479;SDS011;55469;48.934;12.050;2022-12-07T05:01:47;3.92;;;2.90;;
68479;SDS011;55469;48.934;12.050;2022-12-07T05:04:13;3.47;;;2.90;;
68479;SDS011;55469;48.934;12.050;2022-12-07T05:06:40;4.13;;;2.90;;
68479;SDS011;55469;48.934;12.050;2022-12-07T05:09:06;5.68;;;3.10;;
68479;SDS011;55469;48.934;12.050;2022-12-07T05:11:32;4.82;;;3.40;;
68479;SDS011;55469;48.934;12.050;2022-12-07T05:14:05;4.68;;;3.03;;
68479;SDS011;55469;48.934;12.050;2022-12-07T05:16:43;4.45;;;3.10;;
68479;SDS011;55469;48.934;12.050;2022-12-07T05:19:11;3.80;;;2.90;;
68479;SDS011;55469;48.934;12.050;2022-12-07T05:21:37;4.72;;;3.40;;
68479;SDS011;55469;48.934;12.050;2022-12-07T05:24:04;4.13;;;3.00;;
68479;SDS011;55469;48.934;12.050;2022-12-07T05:26:31;3.72;;;2.78;;
68479;SDS011;55469;48.934;12.050;2022-12-07T05:28:57;5.00;;;3.10;;
68479;SDS011;55469;48.934;12.050;2022-12-07T05:31:23;3.65;;;3.03;;
68479;SDS011;55469;48.934;12.050;2022-12-07T05:33:50;4.13;;;3.00;;
68479;SDS011;55469;48.934;12.050;2022-12-07T05:36:16;3.95;;;2.88;;
68479;SDS011;55469;48.934;12.050;2022-12-07T05:38:42;4.07;;;2.97;;
68479;SDS011;55469;48.934;12.050;2022-12-07T05:41:08;4.38;;;3.00;;
68479;SDS011;55469;48.934;12.050;2022-12-07T05:43:57;4.80;;;3.15;;
68479;SDS011;55469;48.934;12.050;2022-12-07T05:46:23;4.30;;;2.92;;
68479;SDS011;55469;48.934;12.050;2022-12-07T05:48:49;5.30;;;3.33;;
68479;SDS011;55469;48.934;12.050;2022-12-07T05:51:15;4.57;;;3.08;;
68479;SDS011;55469;48.934;12.050;2022-12-07T05:53:40;3.08;;;2.55;;
68479;SDS011;55469;48.934;12.050;2022-12-07T05:56:06;4.50;;;3.20;;
68479;SDS011;55469;48.934;12.050;2022-12-07T05:58:32;4.47;;;3.10;;
68479;SDS011;55469;48.934;12.050;2022-12-07T06:01:16;5.43;;;3.13;;
68479;SDS011;55469;48.934;12.050;2022-12-07T06:03:42;3.63;;;3.08;;
68479;SDS011;55469;48.934;12.050;2022-12-07T06:06:07;4.35;;;3.08;;
68479;SDS011;55469;48.934;12.050;2022-12-07T06:08:33;4.93;;;3.10;;
68479;SDS011;55469;48.934;12.050;2022-12-07T06:10:59;4.03;;;3.00;;
68479;SDS011;55469;48.934;12.050;2022-12-07T06:13:43;4.57;;;3.22;;
68479;SDS011;55469;48.934;12.050;2022-12-07T06:16:08;5.10;;;3.80;;
68479;SDS011;55469;48.934;12.050;2022-12-07T06:18:34;4.25;;;3.10;;
68479;SDS011;55469;48.934;12.050;2022-12-07T06:21:00;4.45;;;3.20;;
68479;SDS011;55469;48.934;12.050;2022-12-07T06:23:25;4.00;;;2.92;;
68479;SDS011;55469;48.934;12.050;2022-12-07T06:25:51;5.57;;;3.30;;
68479;SDS011;55469;48.934;12.050;2022-12-07T06:28:17;4.97;;;3.17;;
68479;SDS011;55469;48.934;12.050;2022-12-07T06:30:43;5.00;;;3.42;;
68479;SDS011;55469;48.934;12.050;2022-12-07T06:33:08;4.18;;;3.13;;
68479;SDS011;55469;48.934;12.050;2022-12-07T06:35:34;5.53;;;3.90;;
68479;SDS011;55469;48.934;12.050;2022-12-07T06:38:00;4.70;;;3.40;;
68479;SDS011;55469;48.934;12.050;2022-12-07T06:40:25;4.47;;;3.15;;
68479;SDS011;55469;48.934;12.050;2022-12-07T06:42:51;6.28;;;3.55;;
68479;SDS011;55469;48.934;12.050;2022-12-07T06:45:17;5.05;;;3.20;;
68479;SDS011;55469;48.934;12.050;2022-12-07T06:47:42;6.03;;;3.47;;
68479;SDS011;55469;48.934;12.050;2022-12-07T06:50:08;5.82;;;3.95;;
68479;SDS011;55469;48.934;12.050;2022-12-07T06:52:34;5.32;;;3.70;;
68479;SDS011;55469;48.934;12.050;2022-12-07T06:55:00;5.75;;;3.65;;
68479;SDS011;55469;48.934;12.050;2022-12-07T06:57:26;5.57;;;3.60;;
68479;SDS011;55469;48.934;12.050;2022-12-07T06:59:52;5.85;;;3.50;;
68479;SDS011;55469;48.934;12.050;2022-12-07T07:02:18;5.28;;;3.53;;
68479;SDS011;55469;48.934;12.050;2022-12-07T07:04:44;5.40;;;3.55;;
68479;SDS011;55469;48.934;12.050;2022-12-07T07:07:09;6.45;;;3.80;;
68479;SDS011;55469;48.934;12.050;2022-12-07T07:09:35;5.28;;;3.47;;
68479;SDS011;55469;48.934;12.050;2022-12-07T07:12:01;6.50;;;4.10;;
68479;SDS011;55469;48.934;12.050;2022-12-07T07:14:27;6.32;;;4.20;;
68479;SDS011;55469;48.934;12.050;2022-12-07T07:16:53;4.07;;;3.10;;
68479;SDS011;55469;48.934;12.050;2022-12-07T07:19:18;5.15;;;3.50;;
68479;SDS011;55469;48.934;12.050;2022-12-07T07:21:44;7.38;;;4.00;;
68479;SDS011;55469;48.934;12.050;2022-12-07T07:24:10;4.85;;;3.38;;
68479;SDS011;55469;48.934;12.050;2022-12-07T07:26:35;5.38;;;3.65;;
68479;SDS011;55469;48.934;12.050;2022-12-07T07:29:01;6.30;;;3.90;;
68479;SDS011;55469;48.934;12.050;2022-12-07T07:31:27;5.68;;;3.53;;
68479;SDS011;55469;48.934;12.050;2022-12-07T07:33:53;5.75;;;3.65;;
68479;SDS011;55469;48.934;12.050;2022-12-07T07:36:18;5.13;;;3.47;;
68479;SDS011;55469;48.934;12.050;2022-12-07T07:38:44;4.53;;;3.10;;
68479;SDS011;55469;48.934;12.050;2022-12-07T07:41:10;5.30;;;3.80;;
68479;SDS011;55469;48.934;12.050;2022-12-07T07:43:35;4.53;;;3.30;;
68479;SDS011;55469;48.934;12.050;2022-12-07T07:46:01;4.90;;;3.25;;
68479;SDS011;55469;48.934;12.050;2022-12-07T07:48:27;5.63;;;3.75;;
68479;SDS011;55469;48.934;12.050;2022-12-07T07:50:52;5.85;;;3.70;;
68479;SDS011;55469;48.934;12.050;2022-12-07T07:53:18;6.05;;;3.75;;
68479;SDS011;55469;48.934;12.050;2022-12-07T07:55:51;5.72;;;3.70;;
68479;SDS011;55469;48.934;12.050;2022-12-07T07:58:18;6.65;;;3.97;;
68479;SDS011;55469;48.934;12.050;2022-12-07T08:00:44;5.45;;;3.53;;
68479;SDS011;55469;48.934;12.050;2022-12-07T08:03:09;6.32;;;4.15;;
68479;SDS011;55469;48.934;12.050;2022-12-07T08:05:36;7.60;;;4.88;;
68479;SDS011;55469;48.934;12.050;2022-12-07T08:08:02;6.32;;;3.90;;
68479;SDS011;55469;48.934;12.050;2022-12-07T08:10:28;8.65;;;5.07;;
68479;SDS011;55469;48.934;12.050;2022-12-07T08:12:56;8.23;;;5.43;;
68479;SDS011;55469;48.934;12.050;2022-12-07T08:15:45;8.35;;;4.60;;
68479;SDS011;55469;48.934;12.050;2022-12-07T08:18:13;6.25;;;4.28;;
68479;SDS011;55469;48.934;12.050;2022-12-07T08:20:40;9.43;;;5.63;;
68479;SDS011;55469;48.934;12.050;2022-12-07T08:23:07;7.40;;;5.05;;
68479;SDS011;55469;48.934;12.050;2022-12-07T08:25:34;8.30;;;5.25;;
68479;SDS011;55469;48.934;12.050;2022-12-07T08:28:00;8.95;;;5.20;;
68479;SDS011;55469;48.934;12.050;2022-12-07T08:30:27;7.38;;;4.85;;
68479;SDS011;55469;48.934;12.050;2022-12-07T08:32:54;9.18;;;4.93;;
68479;SDS011;55469;48.934;12.050;2022-12-07T08:35:21;9.65;;;5.93;;
68479;SDS011;55469;48.934;12.050;2022-12-07T08:37:47;10.35;;;5.75;;
68479;SDS011;55469;48.934;12.050;2022-12-07T08:40:13;7.07;;;4.47;;
68479;SDS011;55469;48.934;12.050;2022-12-07T08:42:44;9.45;;;5.55;;
68479;SDS011;55469;48.934;12.050;2022-12-07T08:45:14;8.15;;;4.40;;
68479;SDS011;55469;48.934;12.050;2022-12-07T08:50:20;8.57;;;4.57;;
68479;SDS011;55469;48.934;12.050;2022-12-07T08:52:54;9.40;;;5.80;;
68479;SDS011;55469;48.934;12.050;2022-12-07T08:55:22;9.95;;;4.85;;
68479;SDS011;55469;48.934;12.050;2022-12-07T08:57:48;8.38;;;4.47;;
68479;SDS011;55469;48.934;12.050;2022-12-07T09:00:15;9.55;;;5.40;;
68479;SDS011;55469;48.934;12.050;2022-12-07T09:02:44;6.93;;;4.28;;
68479;SDS011;55469;48.934;12.050;2022-12-07T09:05:10;7.53;;;4.70;;
68479;SDS011;55469;48.934;12.050;2022-12-07T09:07:39;8.45;;;5.05;;
68479;SDS011;55469;48.934;12.050;2022-12-07T09:10:06;8.88;;;5.25;;
68479;SDS011;55469;48.934;12.050;2022-12-07T09:12:33;8.52;;;5.07;;
68479;SDS011;55469;48.934;12.050;2022-12-07T09:14:58;9.20;;;5.20;;
68479;SDS011;55469;48.934;12.050;2022-12-07T09:17:25;9.38;;;5.40;;
68479;SDS011;55469;48.934;12.050;2022-12-07T09:19:51;8.88;;;4.97;;
68479;SDS011;55469;48.934;12.050;2022-12-07T09:22:17;8.25;;;4.80;;
68479;SDS011;55469;48.934;12.050;2022-12-07T09:24:43;7.13;;;4.68;;
68479;SDS011;55469;48.934;12.050;2022-12-07T09:27:10;7.95;;;4.45;;
68479;SDS011;55469;48.934;12.050;2022-12-07T09:29:36;7.97;;;5.07;;
68479;SDS011;55469;48.934;12.050;2022-12-07T09:32:02;7.40;;;4.50;;
68479;SDS011;55469;48.934;12.050;2022-12-07T09:34:30;9.00;;;5.22;;
68479;SDS011;55469;48.934;12.050;2022-12-07T09:36:57;9.45;;;5.50;;
68479;SDS011;55469;48.934;12.050;2022-12-07T09:39:23;7.38;;;4.60;;
68479;SDS011;55469;48.934;12.050;2022-12-07T09:41:48;9.63;;;4.60;;
68479;SDS011;55469;48.934;12.050;2022-12-07T09:44:18;8.07;;;5.10;;
68479;SDS011;55469;48.934;12.050;2022-12-07T09:46:49;8.15;;;4.80;;
68479;SDS011;55469;48.934;12.050;2022-12-07T09:49:23;9.05;;;5.47;;
68479;SDS011;55469;48.934;12.050;2022-12-07T09:52:03;8.73;;;5.20;;
68479;SDS011;55469;48.934;12.050;2022-12-07T09:54:50;7.70;;;4.78;;
68479;SDS011;55469;48.934;12.050;2022-12-07T09:57:17;9.77;;;5.53;;
68479;SDS011;55469;48.934;12.050;2022-12-07T09:59:47;8.52;;;4.65;;
68479;SDS011;55469;48.934;12.050;2022-12-07T10:05:58;8.77;;;5.30;;
68479;SDS011;55469;48.934;12.050;2022-12-07T10:08:17;8.18;;;4.82;;
68479;SDS011;55469;48.934;12.050;2022-12-07T10:10:44;8.07;;;4.85;;
68479;SDS011;55469;48.934;12.050;2022-12-07T10:13:15;7.57;;;5.00;;
68479;SDS011;55469;48.934;12.050;2022-12-07T10:18:28;9.43;;;5.05;;
68479;SDS011;55469;48.934;12.050;2022-12-07T10:23:33;8.10;;;5.20;;
68479;SDS011;55469;48.934;12.050;2022-12-07T10:26:09;9.43;;;4.72;;
68479;SDS011;55469;48.934;12.050;2022-12-07T10:31:42;9.07;;;5.35;;
68479;SDS011;55469;48.934;12.050;2022-12-07T10:34:20;7.03;;;4.57;;
68479;SDS011;55469;48.934;12.050;2022-12-07T10:36:49;8.90;;;4.93;;
68479;SDS011;55469;48.934;12.050;2022-12-07T10:39:17;8.20;;;4.93;;
68479;SDS011;55469;48.934;12.050;2022-12-07T10:42:02;8.95;;;4.57;;
68479;SDS011;55469;48.934;12.050;2022-12-07T10:44:32;9.80;;;5.30;;
68479;SDS011;55469;48.934;12.050;2022-12-07T10:49:55;9.70;;;5.20;;
68479;SDS011;55469;48.934;12.050;2022-12-07T10:52:48;8.30;;;4.80;;
68479;SDS011;55469;48.934;12.050;2022-12-07T11:09:59;9.73;;;4.63;;
68479;SDS011;55469;48.934;12.050;2022-12-07T11:12:43;6.78;;;4.18;;
68479;SDS011;55469;48.934;12.050;2022-12-07T11:15:41;9.50;;;5.60;;
68479;SDS011;55469;48.934;12.050;2022-12-07T11:24:23;7.18;;;4.28;;
68479;SDS011;55469;48.934;12.050;2022-12-07T11:27:24;8.20;;;4.78;;
68479;SDS011;55469;48.934;12.050;2022-12-07T11:33:37;9.73;;;4.88;;
68479;SDS011;55469;48.934;12.050;2022-12-07T11:39:11;8.98;;;5.35;;
68479;SDS011;55469;48.934;12.050;2022-12-07T11:41:52;7.65;;;4.63;;
68479;SDS011;55469;48.934;12.050;2022-12-07T11:44:31;6.85;;;4.47;;
68479;SDS011;55469;48.934;12.050;2022-12-07T11:47:30;6.97;;;4.20;;
68479;SDS011;55469;48.934;12.050;2022-12-07T11:50:13;7.13;;;4.45;;
68479;SDS011;55469;48.934;12.050;2022-12-07T11:58:04;6.95;;;4.13;;
68479;SDS011;55469;48.934;12.050;2022-12-07T12:00:54;7.25;;;4.20;;
68479;SDS011;55469;48.934;12.050;2022-12-07T12:03:34;8.60;;;4.68;;
68479;SDS011;55469;48.934;12.050;2022-12-07T12:06:03;7.53;;;4.20;;
68479;SDS011;55469;48.934;12.050;2022-12-07T12:08:30;8.18;;;4.80;;
68479;SDS011;55469;48.934;12.050;2022-12-07T12:14:16;8.02;;;4.28;;
68479;SDS011;55469;48.934;12.050;2022-12-07T12:16:59;7.60;;;4.30;;
68479;SDS011;55469;48.934;12.050;2022-12-07T12:20:13;8.10;;;4.70;;
68479;SDS011;55469;48.934;12.050;2022-12-07T12:22:48;7.45;;;4.13;;
68479;SDS011;55469;48.934;12.050;2022-12-07T12:25:39;7.68;;;4.30;;
68479;SDS011;55469;48.934;12.050;2022-12-07T12:28:35;7.00;;;4.18;;
68479;SDS011;55469;48.934;12.050;2022-12-07T12:31:14;7.25;;;4.13;;
68479;SDS011;55469;48.934;12.050;2022-12-07T12:51:51;7.35;;;4.28;;
68479;SDS011;55469;48.934;12.050;2022-12-07T12:57:38;8.50;;;4.53;;
68479;SDS011;55469;48.934;12.050;2022-12-07T13:02:50;6.88;;;4.18;;
68479;SDS011;55469;48.934;12.050;2022-12-07T13:05:28;7.50;;;4.60;;
68479;SDS011;55469;48.934;12.050;2022-12-07T13:08:00;6.90;;;4.15;;
68479;SDS011;55469;48.934;12.050;2022-12-07T13:10:34;7.25;;;4.18;;
68479;SDS011;55469;48.934;12.050;2022-12-07T13:13:08;8.15;;;4.57;;
68479;SDS011;55469;48.934;12.050;2022-12-07T13:15:50;7.43;;;4.32;;
68479;SDS011;55469;48.934;12.050;2022-12-07T13:18:24;7.22;;;4.13;;
68479;SDS011;55469;48.934;12.050;2022-12-07T13:26:17;7.75;;;4.15;;
68479;SDS011;55469;48.934;12.050;2022-12-07T13:31:36;8.95;;;4.60;;
68479;SDS011;55469;48.934;12.050;2022-12-07T13:34:27;8.98;;;4.47;;
68479;SDS011;55469;48.934;12.050;2022-12-07T13:36:56;7.82;;;4.55;;
68479;SDS011;55469;48.934;12.050;2022-12-07T13:39:24;7.07;;;4.10;;
68479;SDS011;55469;48.934;12.050;2022-12-07T13:41:52;7.28;;;4.28;;
68479;SDS011;55469;48.934;12.050;2022-12-07T13:44:22;7.95;;;4.32;;
68479;SDS011;55469;48.934;12.050;2022-12-07T13:49:29;7.22;;;4.57;;
68479;SDS011;55469;48.934;12.050;2022-12-07T13:52:15;6.43;;;3.60;;
68479;SDS011;55469;48.934;12.050;2022-12-07T13:57:32;7.72;;;4.43;;
68479;SDS011;55469;48.934;12.050;2022-12-07T14:00:04;7.38;;;4.07;;
68479;SDS011;55469;48.934;12.050;2022-12-07T14:02:57;7.00;;;4.18;;
68479;SDS011;55469;48.934;12.050;2022-12-07T14:05:25;8.15;;;4.45;;
68479;SDS011;55469;48.934;12.050;2022-12-07T14:08:02;6.60;;;4.13;;
68479;SDS011;55469;48.934;12.050;2022-12-07T14:10:31;8.40;;;4.30;;
68479;SDS011;55469;48.934;12.050;2022-12-07T14:13:00;7.18;;;4.07;;
68479;SDS011;55469;48.934;12.050;2022-12-07T14:15:29;9.38;;;4.28;;
68479;SDS011;55469;48.934;12.050;2022-12-07T14:17:58;10.25;;;4.57;;
68479;SDS011;55469;48.934;12.050;2022-12-07T14:20:35;7.07;;;4.22;;
68479;SDS011;55469;48.934;12.050;2022-12-07T14:23:05;6.78;;;4.38;;
68479;SDS011;55469;48.934;12.050;2022-12-07T14:25:52;8.50;;;4.50;;
68479;SDS011;55469;48.934;12.050;2022-12-07T14:28:26;7.90;;;4.00;;
68479;SDS011;55469;48.934;12.050;2022-12-07T14:30:55;6.90;;;3.75;;
68479;SDS011;55469;48.934;12.050;2022-12-07T14:33:21;7.90;;;4.70;;
68479;SDS011;55469;48.934;12.050;2022-12-07T14:35:48;6.82;;;4.10;;
68479;SDS011;55469;48.934;12.050;2022-12-07T14:38:14;6.93;;;3.85;;
68479;SDS011;55469;48.934;12.050;2022-12-07T14:40:40;6.75;;;4.00;;
68479;SDS011;55469;48.934;12.050;2022-12-07T14:43:11;7.82;;;4.25;;
68479;SDS011;55469;48.934;12.050;2022-12-07T14:45:40;7.15;;;4.35;;
68479;SDS011;55469;48.934;12.050;2022-12-07T14:48:10;6.95;;;4.00;;
68479;SDS011;55469;48.934;12.050;2022-12-07T14:50:40;8.50;;;4.40;;
68479;SDS011;55469;48.934;12.050;2022-12-07T14:53:14;6.70;;;4.13;;
68479;SDS011;55469;48.934;12.050;2022-12-07T14:55:42;6.70;;;4.40;;
68479;SDS011;55469;48.934;12.050;2022-12-07T14:58:15;7.95;;;4.32;;
68479;SDS011;55469;48.934;12.050;2022-12-07T15:00:42;8.95;;;4.18;;
68479;SDS011;55469;48.934;12.050;2022-12-07T15:03:08;6.85;;;4.13;;
68479;SDS011;55469;48.934;12.050;2022-12-07T15:05:34;7.72;;;4.47;;
68479;SDS011;55469;48.934;12.050;2022-12-07T15:08:01;7.93;;;4.70;;
68479;SDS011;55469;48.934;12.050;2022-12-07T15:10:28;8.73;;;4.18;;
68479;SDS011;55469;48.934;12.050;2022-12-07T15:13:01;7.63;;;4.35;;
68479;SDS011;55469;48.934;12.050;2022-12-07T15:15:47;7.85;;;4.05;;
68479;SDS011;55469;48.934;12.050;2022-12-07T15:18:15;7.60;;;3.80;;
68479;SDS011;55469;48.934;12.050;2022-12-07T15:20:41;7.07;;;3.95;;
68479;SDS011;55469;48.934;12.050;2022-12-07T15:23:07;6.57;;;4.00;;
68479;SDS011;55469;48.934;12.050;2022-12-07T15:25:33;7.43;;;4.07;;
68479;SDS011;55469;48.934;12.050;2022-12-07T15:27:59;7.50;;;4.10;;
68479;SDS011;55469;48.934;12.050;2022-12-07T15:30:24;9.23;;;5.15;;
68479;SDS011;55469;48.934;12.050;2022-12-07T15:32:51;8.05;;;4.65;;
68479;SDS011;55469;48.934;12.050;2022-12-07T15:35:17;9.52;;;5.07;;
68479;SDS011;55469;48.934;12.050;2022-12-07T15:37:44;7.82;;;4.68;;
68479;SDS011;55469;48.934;12.050;2022-12-07T15:40:10;8.52;;;4.78;;
68479;SDS011;55469;48.934;12.050;2022-12-07T15:42:37;7.28;;;3.80;;
68479;SDS011;55469;48.934;12.050;2022-12-07T15:45:04;8.10;;;4.63;;
68479;SDS011;55469;48.934;12.050;2022-12-07T15:47:35;9.05;;;4.68;;
68479;SDS011;55469;48.934;12.050;2022-12-07T15:50:05;7.55;;;4.60;;
68479;SDS011;55469;48.934;12.050;2022-12-07T15:52:34;7.03;;;4.68;;
68479;SDS011;55469;48.934;12.050;2022-12-07T15:55:00;7.93;;;4.03;;
68479;SDS011;55469;48.934;12.050;2022-12-07T15:57:28;7.60;;;4.70;;
68479;SDS011;55469;48.934;12.050;2022-12-07T15:59:58;8.20;;;4.47;;
68479;SDS011;55469;48.934;12.050;2022-12-07T16:02:24;7.82;;;4.80;;
68479;SDS011;55469;48.934;12.050;2022-12-07T16:04:50;8.30;;;4.35;;
68479;SDS011;55469;48.934;12.050;2022-12-07T16:07:17;7.72;;;4.65;;
68479;SDS011;55469;48.934;12.050;2022-12-07T16:09:44;9.27;;;4.75;;
68479;SDS011;55469;48.934;12.050;2022-12-07T16:12:11;8.35;;;4.45;;
68479;SDS011;55469;48.934;12.050;2022-12-07T16:14:39;8.00;;;4.43;;
68479;SDS011;55469;48.934;12.050;2022-12-07T16:17:06;7.78;;;4.32;;
68479;SDS011;55469;48.934;12.050;2022-12-07T16:19:33;7.88;;;4.22;;
68479;SDS011;55469;48.934;12.050;2022-12-07T16:22:01;7.32;;;4.25;;
68479;SDS011;55469;48.934;12.050;2022-12-07T16:24:28;8.20;;;4.55;;
68479;SDS011;55469;48.934;12.050;2022-12-07T16:26:53;7.13;;;3.75;;
68479;SDS011;55469;48.934;12.050;2022-12-07T16:29:20;7.70;;;4.30;;
68479;SDS011;55469;48.934;12.050;2022-12-07T16:31:47;6.55;;;3.80;;
68479;SDS011;55469;48.934;12.050;2022-12-07T16:34:13;6.30;;;3.83;;
68479;SDS011;55469;48.934;12.050;2022-12-07T16:36:39;7.10;;;4.10;;
68479;SDS011;55469;48.934;12.050;2022-12-07T16:39:05;6.95;;;3.85;;
68479;SDS011;55469;48.934;12.050;2022-12-07T16:41:31;7.85;;;4.28;;
68479;SDS011;55469;48.934;12.050;2022-12-07T16:43:57;8.50;;;4.35;;
68479;SDS011;55469;48.934;12.050;2022-12-07T16:46:28;7.47;;;4.28;;
68479;SDS011;55469;48.934;12.050;2022-12-07T16:48:53;9.25;;;4.28;;
68479;SDS011;55469;48.934;12.050;2022-12-07T16:51:20;6.07;;;3.97;;
68479;SDS011;55469;48.934;12.050;2022-12-07T16:53:46;7.72;;;4.47;;
68479;SDS011;55469;48.934;12.050;2022-12-07T16:56:12;6.80;;;4.18;;
68479;SDS011;55469;48.934;12.050;2022-12-07T16:58:41;7.97;;;4.10;;
68479;SDS011;55469;48.934;12.050;2022-12-07T17:01:14;6.63;;;4.00;;